Beaver County Airport Beaver Falls US
ICAO: KBVI
IATA: BFP
Category: Medium
Scheduled Services: No

Elevation: 1253 ft
TransAlt. 18000 ft.

Airport Communications:
PITTSBURGH APP/DEP:124.75
ATIS:118.35
PITTSBURGH CLNC DEL:124.85
CTAF:120.3
GND:121.8
ALTOONA RDO:115.8
TWR:120.3

KBVI Zoom In..

Runways:

(A) RW 10 length 4501 ft width 100 ft
LOC 109.30 / hdg 101

(B) RW 28 length 4501 ft width 100 ft
LOC 109.30 / hdg 281

Location; KBVI
Day. 04 / Time. 00.55 Zulu
* Altimeter: 30.11
* Temperature: 02° c. 35.6°f.
* Wind from: 210° Speed 08 kn with Gusts up to 14 kn.
Dewpoint: -04° c.
Visibility: 10 Statute Miles.
Clouds: Overcast 1000 ft.

KBVI 040055Z AUTO 21008G14KT 10SM OVC100 02/M04 A3011 RMK AO2 T00221038

Going to: --> -->


Wind From 210°
Speed 08 kn.

 
 
jpsmedia worldairports.se 2020   terms of use